Aviation Digital Data Service (ADDS)

Output produced by METARs form (0808 UTC 18 February 2019)
found at http://www.aviationweather.gov/metar/data/
 
Forecast for: VTSM (SAMUI , TH)
Text: TAF VTSM 180500Z 1806/1906 15010KT 9999 FEW020
Forecast period: 0600 UTC 18 February 2019 to 0600 UTC 19 February 2019
Forecast type: FROM: standard forecast or significant change
Winds: from the SSE (150 degrees) at 12 MPH (10 knots; 5.1 m/s)
Visibility: 6 or more miles 10+ km)
Ceiling: at least 12,000 feet AGL
Clouds: few clouds at 2000 feet AGL
Weather: no significant weather forecast for this period